createdAt,value
2023-02-03T00:00:10.761Z,99.99
2023-02-03T00:01:10.757Z,99.99
2023-02-03T00:02:10.848Z,99.99
2023-02-03T00:03:10.869Z,99.99
2023-02-03T00:04:10.738Z,99.99
2023-02-03T00:05:10.732Z,99.99
2023-02-03T00:06:10.714Z,99.99
2023-02-03T00:07:10.699Z,99.99
2023-02-03T00:08:10.701Z,99.99
2023-02-03T00:09:10.704Z,99.99
2023-02-03T00:10:10.684Z,99.99
2023-02-03T00:11:10.670Z,99.99
2023-02-03T00:12:10.655Z,99.99
2023-02-03T00:13:10.667Z,99.99
2023-02-03T00:14:10.656Z,99.99
2023-02-03T00:15:10.725Z,99.99
2023-02-03T00:16:10.663Z,99.99
2023-02-03T00:17:10.625Z,99.99
2023-02-03T00:18:10.640Z,99.99
2023-02-03T00:19:10.609Z,99.99
2023-02-03T00:20:10.588Z,99.99
2023-02-03T00:21:10.586Z,99.99
2023-02-03T00:22:10.575Z,99.99
2023-02-03T00:23:10.577Z,99.99
2023-02-03T00:24:10.571Z,99.99
2023-02-03T00:25:10.558Z,99.99
2023-02-03T00:26:10.602Z,99.99
2023-02-03T00:27:10.538Z,99.99
2023-02-03T00:28:10.641Z,99.99
2023-02-03T00:29:10.545Z,99.99
2023-02-03T00:30:10.529Z,99.99
2023-02-03T00:31:10.542Z,99.99
2023-02-03T00:32:10.774Z,99.99
2023-02-03T00:33:10.621Z,99.99
2023-02-03T00:34:10.474Z,99.99
2023-02-03T00:35:10.471Z,99.99
2023-02-03T00:36:10.462Z,99.99
2023-02-03T00:37:10.481Z,99.99
2023-02-03T00:38:10.455Z,99.99
2023-02-03T00:39:10.435Z,99.99
2023-02-03T00:40:10.453Z,99.99
2023-02-03T00:41:10.413Z,99.99
2023-02-03T00:42:10.405Z,99.99
2023-02-03T00:43:10.408Z,99.99
2023-02-03T00:44:10.387Z,99.99
2023-02-03T00:45:10.382Z,99.99
2023-02-03T00:46:10.498Z,99.99
2023-02-03T00:47:10.360Z,99.99
2023-02-03T00:48:10.364Z,99.99
2023-02-03T00:49:10.348Z,99.99
2023-02-03T00:50:10.331Z,99.99
2023-02-03T00:51:10.327Z,99.99
2023-02-03T00:52:10.324Z,99.99
2023-02-03T00:53:10.380Z,99.99
2023-02-03T00:54:10.313Z,99.99
2023-02-03T00:55:10.286Z,99.99
2023-02-03T00:56:10.277Z,99.99
2023-02-03T00:57:10.307Z,99.99
2023-02-03T00:58:10.311Z,99.99
2023-02-03T00:59:10.259Z,99.99
2023-02-03T01:00:10.250Z,99.99
2023-02-03T01:01:10.373Z,99.99
2023-02-03T01:02:10.335Z,99.99
2023-02-03T01:03:10.268Z,99.99
2023-02-03T01:04:10.232Z,99.99
2023-02-03T01:05:10.195Z,99.99
2023-02-03T01:06:10.230Z,99.99
2023-02-03T01:07:10.180Z,99.99
2023-02-03T01:08:10.171Z,99.99
2023-02-03T01:09:10.170Z,99.99
2023-02-03T01:10:10.152Z,99.99
2023-02-03T01:11:10.141Z,99.99
2023-02-03T01:12:10.136Z,99.99
2023-02-03T01:13:10.147Z,99.99
2023-02-03T01:14:10.251Z,99.99
2023-02-03T01:15:10.108Z,99.99
2023-02-03T01:16:10.174Z,99.99
2023-02-03T01:17:10.099Z,99.99
2023-02-03T01:18:10.102Z,99.99
2023-02-03T01:19:10.085Z,99.99
2023-02-03T01:20:10.063Z,99.99
2023-02-03T01:21:10.099Z,99.99
2023-02-03T01:22:10.043Z,99.99
2023-02-03T01:23:10.114Z,99.99
2023-02-03T01:24:10.040Z,99.99
2023-02-03T01:25:10.048Z,99.99
2023-02-03T01:26:10.011Z,99.99
2023-02-03T01:27:10.007Z,99.99
2023-02-03T01:28:10.055Z,99.99
2023-02-03T01:29:09.994Z,99.99
2023-02-03T01:30:09.973Z,99.99
2023-02-03T01:31:10.041Z,99.99
2023-02-03T01:32:09.979Z,99.99
2023-02-03T01:33:09.951Z,99.99
2023-02-03T01:34:09.951Z,99.99
2023-02-03T01:35:09.950Z,99.99
2023-02-03T01:36:09.923Z,99.99
2023-02-03T01:37:09.917Z,99.99
2023-02-03T01:38:09.910Z,99.99
2023-02-03T01:39:09.922Z,99.99
2023-02-03T01:40:09.900Z,99.99
2023-02-03T01:41:09.886Z,99.99
2023-02-03T01:42:09.875Z,99.99
2023-02-03T01:43:09.866Z,99.99
2023-02-03T01:44:09.868Z,99.99
2023-02-03T01:45:12.444Z,99.99
2023-02-03T01:46:09.858Z,99.99
2023-02-03T01:47:09.829Z,99.99
2023-02-03T01:48:09.820Z,99.99
2023-02-03T01:49:09.831Z,99.99
2023-02-03T01:50:09.800Z,99.99
2023-02-03T01:51:10.791Z,99.99
2023-02-03T01:52:09.789Z,99.99
2023-02-03T01:53:09.781Z,99.99
2023-02-03T01:54:09.783Z,99.99
2023-02-03T01:55:09.763Z,99.99
2023-02-03T01:56:09.756Z,99.99
2023-02-03T01:57:09.746Z,99.99
2023-02-03T01:58:09.737Z,99.99
2023-02-03T01:59:09.796Z,99.99
2023-02-03T02:00:09.730Z,99.99
2023-02-03T02:01:09.762Z,99.99
2023-02-03T02:02:09.742Z,99.99
2023-02-03T02:03:09.702Z,99.99
2023-02-03T02:04:09.695Z,99.99
2023-02-03T02:05:09.670Z,99.99
2023-02-03T02:06:09.666Z,99.99
2023-02-03T02:07:09.652Z,99.99
2023-02-03T02:08:09.645Z,99.99
2023-02-03T02:09:09.647Z,99.99
2023-02-03T02:10:09.636Z,99.99
2023-02-03T02:11:09.620Z,99.99
2023-02-03T02:12:09.609Z,99.99
2023-02-03T02:13:09.600Z,99.99
2023-02-03T02:14:09.600Z,99.99
2023-02-03T02:15:09.589Z,99.99
2023-02-03T02:16:09.638Z,99.99
2023-02-03T02:17:09.576Z,99.99
2023-02-03T02:18:09.577Z,99.99
2023-02-03T02:19:09.560Z,99.99
2023-02-03T02:20:09.550Z,99.99
2023-02-03T02:21:09.524Z,99.99
2023-02-03T02:22:09.517Z,99.99
2023-02-03T02:23:09.522Z,99.99
2023-02-03T02:24:09.657Z,99.99
2023-02-03T02:25:09.515Z,99.99
2023-02-03T02:26:09.500Z,99.99
2023-02-03T02:27:09.472Z,99.99
2023-02-03T02:28:09.560Z,99.99
2023-02-03T02:29:09.464Z,99.99
2023-02-03T02:30:09.452Z,99.99
2023-02-03T02:31:09.601Z,99.99
2023-02-03T02:32:09.431Z,99.99
2023-02-03T02:33:09.425Z,99.99
2023-02-03T02:34:09.437Z,99.99
2023-02-03T02:35:09.423Z,99.99
2023-02-03T02:36:09.398Z,99.99
2023-02-03T02:37:09.392Z,99.99
2023-02-03T02:38:09.390Z,99.99
2023-02-03T02:39:09.382Z,99.99
2023-02-03T02:40:09.387Z,99.99
2023-02-03T02:41:09.365Z,99.99
2023-02-03T02:42:09.346Z,99.99
2023-02-03T02:43:09.339Z,99.99
2023-02-03T02:44:09.339Z,99.99
2023-02-03T02:45:09.319Z,99.99
2023-02-03T02:46:10.355Z,99.99
2023-02-03T02:47:09.308Z,99.99
2023-02-03T02:48:09.290Z,99.99
2023-02-03T02:49:09.299Z,99.99
2023-02-03T02:50:09.271Z,99.99
2023-02-03T02:51:09.261Z,99.99
2023-02-03T02:52:09.264Z,99.99
2023-02-03T02:53:09.253Z,99.99
2023-02-03T02:54:09.250Z,99.99
2023-02-03T02:55:09.234Z,99.99
2023-02-03T02:56:11.447Z,99.99
2023-02-03T02:57:09.220Z,99.99
2023-02-03T02:58:09.220Z,99.99
2023-02-03T02:59:09.211Z,99.99
2023-02-03T03:00:09.192Z,99.99
2023-02-03T03:01:09.245Z,99.99
2023-02-03T03:02:09.170Z,99.99
2023-02-03T03:03:09.162Z,99.99
2023-02-03T03:04:09.168Z,99.99
2023-02-03T03:05:09.262Z,99.99
2023-02-03T03:06:09.141Z,99.99
2023-02-03T03:07:09.129Z,99.99
2023-02-03T03:08:09.140Z,99.99
2023-02-03T03:09:09.129Z,99.99
2023-02-03T03:10:09.099Z,99.99
2023-02-03T03:11:09.093Z,99.99
2023-02-03T03:12:09.087Z,99.99
2023-02-03T03:13:09.072Z,99.99
2023-02-03T03:14:09.064Z,99.99
2023-02-03T03:15:09.067Z,99.99
2023-02-03T03:16:09.126Z,99.99
2023-02-03T03:17:09.071Z,99.99
2023-02-03T03:18:09.049Z,99.99
2023-02-03T03:19:09.023Z,99.99
2023-02-03T03:20:09.029Z,99.99
2023-02-03T03:21:09.004Z,99.99
2023-02-03T03:22:08.995Z,99.99
2023-02-03T03:23:08.983Z,99.99
2023-02-03T03:24:08.976Z,99.99
2023-02-03T03:25:08.984Z,99.99
2023-02-03T03:26:08.956Z,99.99
2023-02-03T03:27:08.990Z,99.99
2023-02-03T03:28:08.982Z,99.99
2023-02-03T03:29:08.937Z,99.99
2023-02-03T03:30:08.933Z,99.99
2023-02-03T03:31:09.017Z,99.99
2023-02-03T03:32:08.900Z,99.99
2023-02-03T03:33:08.901Z,99.99
2023-02-03T03:34:08.882Z,99.99
2023-02-03T03:35:08.887Z,99.99
2023-02-03T03:36:08.878Z,99.99
2023-02-03T03:37:08.867Z,99.99
2023-02-03T03:38:08.862Z,99.99
2023-02-03T03:39:09.840Z,99.99
2023-02-03T03:40:08.842Z,99.99
2023-02-03T03:41:08.825Z,99.99
2023-02-03T03:42:08.811Z,99.99
2023-02-03T03:43:08.801Z,99.99
2023-02-03T03:44:08.797Z,99.99
2023-02-03T03:45:08.797Z,99.99
2023-02-03T03:46:08.799Z,99.99
2023-02-03T03:47:08.764Z,99.99
2023-02-03T03:48:08.762Z,99.99
2023-02-03T03:49:08.753Z,99.99
2023-02-03T03:50:08.756Z,99.99
2023-02-03T03:51:08.729Z,99.99
2023-02-03T03:52:34.624Z,99.99
2023-02-03T03:53:08.724Z,99.99
2023-02-03T03:54:08.698Z,99.99
2023-02-03T03:55:08.707Z,99.99
2023-02-03T03:56:08.684Z,99.99
2023-02-03T03:57:08.684Z,99.99
2023-02-03T03:58:08.661Z,99.99
2023-02-03T03:59:08.663Z,99.99
2023-02-03T04:00:08.661Z,99.99
2023-02-03T04:01:08.710Z,99.99
2023-02-03T04:02:08.817Z,99.99
2023-02-03T04:03:08.667Z,99.99
2023-02-03T04:04:08.613Z,99.99
2023-02-03T04:05:08.625Z,99.87
2023-02-03T04:06:08.638Z,99.71
2023-02-03T04:07:08.588Z,99.71
2023-02-03T04:08:08.577Z,99.71
2023-02-03T04:09:08.570Z,99.92
2023-02-03T04:10:08.566Z,99.82
2023-02-03T04:11:08.562Z,99.61
2023-02-03T04:12:08.541Z,99.61
2023-02-03T04:13:08.529Z,99.82
2023-02-03T04:14:08.540Z,99.56
2023-02-03T04:15:08.533Z,98.99
2023-02-03T04:16:08.558Z,99.25
2023-02-03T04:17:08.498Z,98.94
2023-02-03T04:18:08.495Z,98.84
2023-02-03T04:19:08.705Z,98.37
2023-02-03T04:20:09.655Z,98.43
2023-02-03T04:21:08.466Z,99.19
2023-02-03T04:22:08.453Z,98.68
2023-02-03T04:23:08.444Z,98.68
2023-02-03T04:24:08.434Z,99.35
2023-02-03T04:25:08.438Z,98.74
2023-02-03T04:26:08.416Z,98.84
2023-02-03T04:27:08.406Z,99.05
2023-02-03T04:28:08.404Z,98.94
2023-02-03T04:29:08.383Z,97.91
2023-02-03T04:30:08.389Z,98.01
2023-02-03T04:31:08.470Z,97.81
2023-02-03T04:32:08.445Z,97.50
2023-02-03T04:33:08.358Z,97.50
2023-02-03T04:34:08.341Z,98.01
2023-02-03T04:35:08.344Z,97.91
2023-02-03T04:36:08.327Z,97.66
2023-02-03T04:37:08.319Z,97.66
2023-02-03T04:38:08.310Z,97.66
2023-02-03T04:39:08.297Z,96.98
2023-02-03T04:40:08.307Z,97.60
2023-02-03T04:41:08.285Z,97.39
2023-02-03T04:42:08.272Z,98.01
2023-02-03T04:43:08.258Z,97.39
2023-02-03T04:44:08.264Z,96.77
2023-02-03T04:45:08.264Z,97.04
2023-02-03T04:46:08.284Z,97.34
2023-02-03T04:47:08.237Z,96.67
2023-02-03T04:48:08.225Z,97.66
2023-02-03T04:49:08.225Z,97.39
2023-02-03T04:50:08.221Z,97.60
2023-02-03T04:51:08.224Z,97.45
2023-02-03T04:52:08.196Z,97.04
2023-02-03T04:53:08.182Z,97.08
2023-02-03T04:54:08.168Z,97.86
2023-02-03T04:55:08.179Z,97.04
2023-02-03T04:56:08.152Z,96.77
2023-02-03T04:57:08.153Z,97.34
2023-02-03T04:58:08.131Z,97.08
2023-02-03T04:59:08.119Z,97.66
2023-02-03T05:00:08.128Z,97.29
2023-02-03T05:01:08.253Z,97.55
2023-02-03T05:02:08.100Z,96.94
2023-02-03T05:03:08.131Z,96.21
2023-02-03T05:04:08.079Z,96.11
2023-02-03T05:05:08.078Z,96.11
2023-02-03T05:06:08.060Z,96.31
2023-02-03T05:07:09.052Z,96.21
2023-02-03T05:08:08.039Z,96.42
2023-02-03T05:09:08.031Z,96.37
2023-02-03T05:10:08.025Z,96.48
2023-02-03T05:11:08.009Z,96.79
2023-02-03T05:12:08.031Z,96.37
2023-02-03T05:13:07.986Z,96.48
2023-02-03T05:14:07.983Z,96.48
2023-02-03T05:15:07.990Z,95.70
2023-02-03T05:16:08.052Z,96.31
2023-02-03T05:17:07.952Z,96.94
2023-02-03T05:18:07.940Z,95.34
2023-02-03T05:19:07.933Z,95.70
2023-02-03T05:20:07.945Z,95.86
2023-02-03T05:21:07.926Z,95.28
2023-02-03T05:22:07.907Z,95.39
2023-02-03T05:23:07.896Z,95.59
2023-02-03T05:24:07.930Z,95.90
2023-02-03T05:25:07.886Z,95.59
2023-02-03T05:26:07.869Z,95.59
2023-02-03T05:27:07.875Z,95.70
2023-02-03T05:28:07.898Z,95.59
2023-02-03T05:29:07.853Z,95.39
2023-02-03T05:30:07.853Z,94.56
2023-02-03T05:31:07.854Z,94.87
2023-02-03T05:32:07.863Z,94.04
2023-02-03T05:33:07.799Z,94.87
2023-02-03T05:34:07.894Z,94.87
2023-02-03T05:35:07.795Z,93.53
2023-02-03T05:36:07.773Z,94.46
2023-02-03T05:37:07.765Z,94.25
2023-02-03T05:38:07.750Z,94.46
2023-02-03T05:39:07.748Z,94.46
2023-02-03T05:40:07.748Z,94.67
2023-02-03T05:41:07.734Z,94.46
2023-02-03T05:42:07.716Z,93.73
2023-02-03T05:43:07.701Z,93.73
2023-02-03T05:44:07.704Z,93.94
2023-02-03T05:45:07.703Z,94.04
2023-02-03T05:46:07.714Z,94.10
2023-02-03T05:47:07.695Z,93.32
2023-02-03T05:48:07.657Z,93.18
2023-02-03T05:49:07.653Z,92.70
2023-02-03T05:50:07.649Z,93.38
2023-02-03T05:51:07.626Z,93.43
2023-02-03T05:52:07.618Z,93.12
2023-02-03T05:53:07.605Z,93.07
2023-02-03T05:54:07.597Z,93.22
2023-02-03T05:55:07.601Z,92.86
2023-02-03T05:56:07.581Z,93.49
2023-02-03T05:57:07.581Z,92.08
2023-02-03T05:58:07.564Z,93.12
2023-02-03T05:59:07.553Z,93.01
2023-02-03T06:00:07.557Z,92.97
2023-02-03T06:01:07.537Z,93.12
2023-02-03T06:02:07.521Z,92.97
2023-02-03T06:03:08.583Z,93.49
2023-02-03T06:04:07.607Z,92.86
2023-02-03T06:05:07.520Z,92.97
2023-02-03T06:06:07.497Z,92.66
2023-02-03T06:07:07.478Z,92.25
2023-02-03T06:08:07.471Z,92.04
2023-02-03T06:09:07.478Z,92.55
2023-02-03T06:10:07.470Z,91.52
2023-02-03T06:11:07.445Z,92.25
2023-02-03T06:12:07.443Z,91.77
2023-02-03T06:13:07.425Z,91.94
2023-02-03T06:14:07.417Z,92.46
2023-02-03T06:15:07.413Z,92.14
2023-02-03T06:16:07.391Z,92.14
2023-02-03T06:17:07.386Z,91.48
2023-02-03T06:18:07.373Z,91.32
2023-02-03T06:19:07.370Z,91.52
2023-02-03T06:20:07.364Z,91.17
2023-02-03T06:21:07.362Z,91.22
2023-02-03T06:22:08.330Z,91.58
2023-02-03T06:23:07.330Z,90.76
2023-02-03T06:24:07.315Z,91.52
2023-02-03T06:25:07.312Z,91.48
2023-02-03T06:26:07.315Z,91.01
2023-02-03T06:27:07.300Z,90.45
2023-02-03T06:28:07.443Z,91.32
2023-02-03T06:29:07.266Z,91.42
2023-02-03T06:30:07.270Z,91.28
2023-02-03T06:31:07.360Z,90.55
2023-02-03T06:32:07.276Z,89.83
2023-02-03T06:33:07.224Z,90.86
2023-02-03T06:34:07.216Z,91.07
2023-02-03T06:35:07.213Z,90.66
2023-02-03T06:36:07.245Z,90.76
2023-02-03T06:37:07.186Z,90.86
2023-02-03T06:38:07.168Z,91.07
2023-02-03T06:39:07.161Z,90.25
2023-02-03T06:40:07.157Z,90.14
2023-02-03T06:41:07.141Z,89.32
2023-02-03T06:42:07.132Z,89.48
2023-02-03T06:43:07.130Z,90.00
2023-02-03T06:44:07.115Z,89.52
2023-02-03T06:45:07.108Z,89.73
2023-02-03T06:46:07.111Z,89.38
2023-02-03T06:47:07.083Z,89.94
2023-02-03T06:48:07.073Z,90.51
2023-02-03T06:49:07.065Z,90.82
2023-02-03T06:50:07.066Z,90.97
2023-02-03T06:51:07.041Z,90.10
2023-02-03T06:52:07.031Z,90.66
2023-02-03T06:53:07.025Z,90.92
2023-02-03T06:54:07.020Z,91.03
2023-02-03T06:55:07.021Z,90.10
2023-02-03T06:56:07.007Z,90.61
2023-02-03T06:57:06.989Z,90.55
2023-02-03T06:58:06.979Z,89.79
2023-02-03T06:59:06.965Z,90.14
2023-02-03T07:00:07.021Z,90.41
2023-02-03T07:01:07.037Z,89.79
2023-02-03T07:02:06.939Z,89.79
2023-02-03T07:03:06.923Z,89.89
2023-02-03T07:04:06.922Z,89.79
2023-02-03T07:05:06.927Z,90.82
2023-02-03T07:06:06.905Z,89.79
2023-02-03T07:07:06.893Z,90.04
2023-02-03T07:08:06.898Z,89.38
2023-02-03T07:09:06.891Z,90.00
2023-02-03T07:10:06.878Z,90.82
2023-02-03T07:11:06.857Z,90.72
2023-02-03T07:12:06.842Z,90.00
2023-02-03T07:13:06.833Z,90.10
2023-02-03T07:14:06.817Z,90.31
2023-02-03T07:15:06.832Z,90.92
2023-02-03T07:16:06.843Z,90.31
2023-02-03T07:17:06.808Z,90.10
2023-02-03T07:18:06.788Z,90.72
2023-02-03T07:19:06.774Z,90.41
2023-02-03T07:20:06.777Z,90.51
2023-02-03T07:21:06.759Z,90.67
2023-02-03T07:22:06.745Z,90.51
2023-02-03T07:23:06.774Z,90.26
2023-02-03T07:24:06.743Z,90.57
2023-02-03T07:25:06.728Z,90.88
2023-02-03T07:26:06.706Z,91.19
2023-02-03T07:27:06.702Z,90.67
2023-02-03T07:28:06.702Z,90.99
2023-02-03T07:29:06.677Z,91.09
2023-02-03T07:30:06.683Z,91.03
2023-02-03T07:31:06.748Z,91.40
2023-02-03T07:32:06.733Z,91.40
2023-02-03T07:33:06.642Z,91.40
2023-02-03T07:34:06.637Z,91.19
2023-02-03T07:35:06.640Z,91.19
2023-02-03T07:36:06.604Z,91.19
2023-02-03T07:37:06.598Z,91.30
2023-02-03T07:38:06.601Z,91.71
2023-02-03T07:39:06.576Z,92.02
2023-02-03T07:40:06.575Z,92.43
2023-02-03T07:41:06.584Z,92.74
2023-02-03T07:42:06.546Z,93.05
2023-02-03T07:43:06.541Z,93.25
2023-02-03T07:44:06.527Z,93.25
2023-02-03T07:45:06.525Z,93.46
2023-02-03T07:46:06.539Z,92.63
2023-02-03T07:47:06.496Z,93.35
2023-02-03T07:48:06.484Z,93.15
2023-02-03T07:49:06.479Z,93.15
2023-02-03T07:50:06.498Z,93.35
2023-02-03T07:51:06.478Z,93.35
2023-02-03T07:52:06.440Z,93.15
2023-02-03T07:53:06.433Z,92.94
2023-02-03T07:54:06.424Z,92.53
2023-02-03T07:55:06.430Z,92.84
2023-02-03T07:56:06.402Z,93.46
2023-02-03T07:57:06.405Z,92.53
2023-02-03T07:58:06.394Z,92.63
2023-02-03T07:59:06.376Z,93.25
2023-02-03T08:00:06.382Z,92.53
2023-02-03T08:01:06.358Z,92.63
2023-02-03T08:02:06.374Z,92.74
2023-02-03T08:03:06.362Z,92.53
2023-02-03T08:04:06.346Z,92.53
2023-02-03T08:05:06.401Z,92.53
2023-02-03T08:06:06.315Z,93.25
2023-02-03T08:07:06.301Z,93.05
2023-02-03T08:08:06.307Z,93.31
2023-02-03T08:09:06.287Z,92.84
2023-02-03T08:10:06.304Z,93.77
2023-02-03T08:11:06.276Z,93.56
2023-02-03T08:12:06.257Z,94.03
2023-02-03T08:13:06.245Z,94.28
2023-02-03T08:14:06.249Z,94.49
2023-02-03T08:15:06.241Z,94.80
2023-02-03T08:16:06.237Z,94.70
2023-02-03T08:17:06.225Z,94.80
2023-02-03T08:18:06.298Z,95.10
2023-02-03T08:19:06.196Z,95.00
2023-02-03T08:20:06.190Z,95.83
2023-02-03T08:21:06.172Z,95.73
2023-02-03T08:22:06.168Z,96.24
2023-02-03T08:23:06.168Z,95.98
2023-02-03T08:24:06.144Z,96.08
2023-02-03T08:25:07.151Z,95.77
2023-02-03T08:26:06.154Z,96.70
2023-02-03T08:27:06.156Z,96.70
2023-02-03T08:28:06.153Z,96.34
2023-02-03T08:29:06.105Z,96.45
2023-02-03T08:30:06.108Z,96.39
2023-02-03T08:31:06.208Z,97.38
2023-02-03T08:32:06.387Z,97.11
2023-02-03T08:33:06.063Z,97.06
2023-02-03T08:34:06.060Z,97.11
2023-02-03T08:35:06.159Z,97.58
2023-02-03T08:36:06.049Z,97.52
2023-02-03T08:37:06.027Z,97.52
2023-02-03T08:38:06.021Z,97.52
2023-02-03T08:39:06.009Z,97.83
2023-02-03T08:40:06.015Z,97.94
2023-02-03T08:41:05.999Z,97.94
2023-02-03T08:42:05.982Z,97.52
2023-02-03T08:43:05.970Z,97.89
2023-02-03T08:44:06.025Z,98.35
2023-02-03T08:45:05.949Z,97.83
2023-02-03T08:46:05.996Z,97.89
2023-02-03T08:47:05.930Z,97.99
2023-02-03T08:48:05.921Z,98.92
2023-02-03T08:49:05.912Z,98.82
2023-02-03T08:50:05.908Z,98.86
2023-02-03T08:51:05.908Z,98.66
2023-02-03T08:52:05.889Z,99.02
2023-02-03T08:53:05.884Z,98.76
2023-02-03T08:54:05.872Z,98.66
2023-02-03T08:55:05.872Z,98.45
2023-02-03T08:56:05.872Z,98.92
2023-02-03T08:57:05.842Z,98.41
2023-02-03T08:58:05.832Z,98.30
2023-02-03T08:59:05.823Z,98.92
2023-02-03T09:00:05.810Z,98.92
2023-02-03T09:01:05.868Z,98.71
2023-02-03T09:02:05.792Z,99.17
2023-02-03T09:03:05.792Z,98.66
2023-02-03T09:04:05.778Z,98.55
2023-02-03T09:05:05.795Z,99.07
2023-02-03T09:06:05.759Z,98.76
2023-02-03T09:07:05.743Z,98.76
2023-02-03T09:08:05.735Z,98.97
2023-02-03T09:09:05.726Z,99.38
2023-02-03T09:10:05.714Z,99.07
2023-02-03T09:11:05.721Z,99.17
2023-02-03T09:12:05.730Z,99.07
2023-02-03T09:13:05.695Z,99.17
2023-02-03T09:14:07.394Z,98.55
2023-02-03T09:15:06.674Z,98.97
2023-02-03T09:16:05.720Z,98.66
2023-02-03T09:17:05.650Z,98.66
2023-02-03T09:18:05.640Z,98.92
2023-02-03T09:19:05.633Z,98.86
2023-02-03T09:20:05.662Z,99.07
2023-02-03T09:21:05.623Z,99.13
2023-02-03T09:22:05.606Z,98.92
2023-02-03T09:23:05.604Z,98.92
2023-02-03T09:24:05.585Z,98.71
2023-02-03T09:25:05.570Z,98.82
2023-02-03T09:26:05.586Z,98.71
2023-02-03T09:27:05.558Z,98.71
2023-02-03T09:28:05.593Z,98.71
2023-02-03T09:29:05.542Z,98.61
2023-02-03T09:30:05.525Z,99.13
2023-02-03T09:31:05.618Z,99.02
2023-02-03T09:32:05.523Z,99.02
2023-02-03T09:33:05.498Z,99.02
2023-02-03T09:34:05.514Z,98.92
2023-02-03T09:35:05.482Z,99.02
2023-02-03T09:36:05.478Z,98.82
2023-02-03T09:37:05.465Z,99.23
2023-02-03T09:38:05.450Z,99.02
2023-02-03T09:39:05.449Z,98.61
2023-02-03T09:40:06.433Z,98.82
2023-02-03T09:41:11.764Z,98.97
2023-02-03T09:42:07.435Z,99.02
2023-02-03T09:43:05.404Z,98.71
2023-02-03T09:44:05.397Z,99.02
2023-02-03T09:45:05.396Z,98.20
2023-02-03T09:46:05.404Z,98.61
2023-02-03T09:47:06.778Z,98.41
2023-02-03T09:48:05.373Z,98.30
2023-02-03T09:49:05.346Z,98.41
2023-02-03T09:50:05.336Z,98.61
2023-02-03T09:51:05.348Z,98.41
2023-02-03T09:52:05.337Z,99.23
2023-02-03T09:53:31.237Z,98.50
2023-02-03T09:54:05.315Z,98.67
2023-02-03T09:55:05.291Z,98.46
2023-02-03T09:56:05.291Z,98.05
2023-02-03T09:57:05.340Z,98.15
2023-02-03T09:58:05.286Z,98.36
2023-02-03T09:59:05.267Z,98.05
2023-02-03T10:00:05.247Z,97.74
2023-02-03T10:01:05.324Z,97.74
2023-02-03T10:02:05.239Z,98.05
2023-02-03T10:03:05.218Z,97.78
2023-02-03T10:04:05.215Z,97.33
2023-02-03T10:05:05.212Z,97.43
2023-02-03T10:06:05.203Z,97.33
2023-02-03T10:07:05.181Z,97.33
2023-02-03T10:08:05.172Z,97.13
2023-02-03T10:09:05.195Z,97.23
2023-02-03T10:10:05.180Z,97.02
2023-02-03T10:11:05.156Z,96.81
2023-02-03T10:12:05.143Z,96.92
2023-02-03T10:13:05.120Z,97.13
2023-02-03T10:14:05.116Z,96.97
2023-02-03T10:15:05.112Z,97.53
2023-02-03T10:16:05.105Z,97.02
2023-02-03T10:17:05.171Z,97.23
2023-02-03T10:18:05.073Z,96.77
2023-02-03T10:19:05.062Z,96.88
2023-02-03T10:20:05.073Z,97.13
2023-02-03T10:21:05.055Z,96.77
2023-02-03T10:22:05.031Z,96.46
2023-02-03T10:23:05.021Z,96.25
2023-02-03T10:24:05.138Z,96.46
2023-02-03T10:25:05.010Z,96.77
2023-02-03T10:26:05.028Z,96.46
2023-02-03T10:27:04.998Z,95.74
2023-02-03T10:28:05.097Z,95.95
2023-02-03T10:29:04.978Z,96.15
2023-02-03T10:30:04.957Z,95.84
2023-02-03T10:31:05.001Z,95.74
2023-02-03T10:32:05.101Z,96.15
2023-02-03T10:33:04.941Z,96.56
2023-02-03T10:34:04.919Z,95.53
2023-02-03T10:35:04.924Z,95.74
2023-02-03T10:36:04.914Z,95.53
2023-02-03T10:37:04.919Z,95.53
2023-02-03T10:38:04.881Z,95.80
2023-02-03T10:39:04.917Z,95.08
2023-02-03T10:40:04.864Z,95.12
2023-02-03T10:41:04.964Z,95.49
2023-02-03T10:42:04.843Z,95.70
2023-02-03T10:43:04.842Z,95.49
2023-02-03T10:44:05.825Z,95.80
2023-02-03T10:45:04.814Z,96.21
2023-02-03T10:46:04.831Z,96.11
2023-02-03T10:47:04.790Z,95.70
2023-02-03T10:48:04.802Z,96.11
2023-02-03T10:49:04.776Z,96.11
2023-02-03T10:50:04.763Z,96.17
2023-02-03T10:51:04.760Z,96.37
2023-02-03T10:52:04.755Z,96.27
2023-02-03T10:53:04.762Z,95.39
2023-02-03T10:54:04.730Z,96.42
2023-02-03T10:55:04.728Z,95.80
2023-02-03T10:56:04.704Z,95.75
2023-02-03T10:57:04.825Z,95.49
2023-02-03T10:58:04.706Z,95.86
2023-02-03T10:59:04.683Z,96.00
2023-02-03T11:00:04.680Z,95.08
2023-02-03T11:01:04.661Z,95.03
2023-02-03T11:02:04.661Z,94.87
2023-02-03T11:03:04.697Z,94.67
2023-02-03T11:04:04.658Z,93.95
2023-02-03T11:05:04.634Z,94.62
2023-02-03T11:06:04.615Z,94.62
2023-02-03T11:07:04.654Z,94.52
2023-02-03T11:08:04.611Z,94.67
2023-02-03T11:09:04.585Z,94.52
2023-02-03T11:10:04.571Z,94.42
2023-02-03T11:11:04.568Z,94.31
2023-02-03T11:12:04.560Z,94.67
2023-02-03T11:13:04.566Z,94.52
2023-02-03T11:14:04.553Z,94.36
2023-02-03T11:15:04.536Z,93.90
2023-02-03T11:16:04.589Z,94.26
2023-02-03T11:17:04.518Z,94.01
2023-02-03T11:18:04.525Z,94.26
2023-02-03T11:19:04.498Z,94.42
2023-02-03T11:20:04.566Z,94.52
2023-02-03T11:21:04.480Z,94.21
2023-02-03T11:22:04.489Z,94.21
2023-02-03T11:23:04.489Z,94.21
2023-02-03T11:24:04.459Z,93.80
2023-02-03T11:25:04.445Z,93.70
2023-02-03T11:26:04.436Z,94.11
2023-02-03T11:27:04.479Z,93.90
2023-02-03T11:28:04.470Z,93.90
2023-02-03T11:29:04.402Z,94.01
2023-02-03T11:30:04.395Z,93.18
2023-02-03T11:31:04.492Z,93.55
2023-02-03T11:32:04.609Z,93.49
2023-02-03T11:33:04.409Z,93.49
2023-02-03T11:34:04.358Z,93.49
2023-02-03T11:35:04.350Z,93.80
2023-02-03T11:36:04.336Z,93.49
2023-02-03T11:37:04.342Z,94.11
2023-02-03T11:38:04.305Z,93.55
2023-02-03T11:39:05.322Z,93.96
2023-02-03T11:40:04.451Z,93.90
2023-02-03T11:41:04.298Z,94.01
2023-02-03T11:42:04.296Z,93.70
2023-02-03T11:43:04.274Z,94.01
2023-02-03T11:44:04.268Z,94.01
2023-02-03T11:45:04.256Z,93.18
2023-02-03T11:46:04.334Z,93.80
2023-02-03T11:47:04.260Z,94.07
2023-02-03T11:48:04.228Z,93.80
2023-02-03T11:49:04.227Z,93.86
2023-02-03T11:50:04.214Z,94.62
2023-02-03T11:51:04.226Z,94.07
2023-02-03T11:52:04.198Z,94.48
2023-02-03T11:53:04.185Z,94.68
2023-02-03T11:54:04.175Z,93.76
2023-02-03T11:55:04.169Z,93.96
2023-02-03T11:56:04.150Z,94.37
2023-02-03T11:57:04.148Z,94.68
2023-02-03T11:58:04.131Z,94.78
2023-02-03T11:59:04.122Z,95.03
2023-02-03T12:00:04.130Z,94.58
2023-02-03T12:01:04.122Z,94.58
2023-02-03T12:02:04.115Z,94.89
2023-02-03T12:03:04.195Z,94.07
2023-02-03T12:04:04.174Z,94.68
2023-02-03T12:05:04.073Z,94.68
2023-02-03T12:06:04.059Z,94.48
2023-02-03T12:07:04.083Z,95.20
2023-02-03T12:08:04.035Z,95.55
2023-02-03T12:09:04.083Z,95.14
2023-02-03T12:10:04.016Z,95.45
2023-02-03T12:11:04.017Z,95.55
2023-02-03T12:12:04.019Z,95.55
2023-02-03T12:13:04.001Z,95.24
2023-02-03T12:14:03.981Z,96.27
2023-02-03T12:15:03.975Z,95.65
2023-02-03T12:16:04.018Z,95.75
2023-02-03T12:17:03.967Z,96.27
2023-02-03T12:18:03.956Z,96.22
2023-02-03T12:19:03.940Z,95.86
2023-02-03T12:20:03.931Z,97.30
2023-02-03T12:21:03.919Z,96.89
2023-02-03T12:22:03.922Z,97.30
2023-02-03T12:23:03.913Z,97.19
2023-02-03T12:24:03.890Z,97.91
2023-02-03T12:25:03.879Z,97.96
2023-02-03T12:26:03.865Z,97.71
2023-02-03T12:27:03.868Z,98.02
2023-02-03T12:28:03.991Z,98.79
2023-02-03T12:29:03.837Z,98.43
2023-02-03T12:30:03.833Z,98.06
2023-02-03T12:31:03.859Z,98.37
2023-02-03T12:32:03.895Z,98.02
2023-02-03T12:33:03.798Z,98.37
2023-02-03T12:34:03.790Z,98.88
2023-02-03T12:35:03.781Z,99.09
2023-02-03T12:36:03.861Z,98.88
2023-02-03T12:37:03.772Z,99.30
2023-02-03T12:38:03.754Z,99.99
2023-02-03T12:39:03.743Z,99.99
2023-02-03T12:40:03.750Z,99.99
2023-02-03T12:41:03.725Z,99.19
2023-02-03T12:42:04.730Z,98.79
2023-02-03T12:43:03.711Z,98.79
2023-02-03T12:44:03.701Z,99.40
2023-02-03T12:45:03.704Z,98.88
2023-02-03T12:46:03.847Z,99.05
2023-02-03T12:47:03.829Z,98.99
2023-02-03T12:48:03.676Z,99.05
2023-02-03T12:49:03.657Z,98.68
2023-02-03T12:50:03.666Z,99.60
2023-02-03T12:51:03.631Z,99.19
2023-02-03T12:52:03.644Z,99.40